createdAt,value
2023-05-16T00:00:00.824Z,8.3
2023-05-16T00:05:00.569Z,8.3
2023-05-16T00:10:00.552Z,8.3
2023-05-16T00:15:00.653Z,8.3
2023-05-16T00:20:00.670Z,8.3
2023-05-16T00:30:00.651Z,8.4
2023-05-16T00:35:00.630Z,8.4
2023-05-16T00:45:00.642Z,8.4
2023-05-16T00:50:00.692Z,8.4
2023-05-16T00:55:00.653Z,8.4
2023-05-16T01:00:00.608Z,8.4
2023-05-16T01:05:00.821Z,8.4
2023-05-16T01:10:00.723Z,8.5
2023-05-16T01:15:00.655Z,8.5
2023-05-16T01:20:00.760Z,8.5
2023-05-16T01:25:00.772Z,8.5
2023-05-16T01:30:00.785Z,8.4
2023-05-16T01:35:00.635Z,8.4
2023-05-16T01:40:00.628Z,8.5
2023-05-16T01:45:00.630Z,8.5
2023-05-16T01:55:00.764Z,8.5
2023-05-16T02:00:00.588Z,8.5
2023-05-16T02:05:00.706Z,8.4
2023-05-16T02:10:00.672Z,8.4
2023-05-16T02:15:00.671Z,8.5
2023-05-16T02:20:00.692Z,8.5
2023-05-16T02:25:00.642Z,8.5
2023-05-16T02:30:00.819Z,8.5
2023-05-16T02:35:00.782Z,8.5
2023-05-16T02:40:00.749Z,8.5
2023-05-16T02:45:00.617Z,8.5
2023-05-16T02:50:00.832Z,8.5
2023-05-16T02:55:16.498Z,8.5
2023-05-16T03:00:00.704Z,8.6
2023-05-16T03:05:00.674Z,8.6
2023-05-16T03:10:00.686Z,8.6
2023-05-16T03:15:00.684Z,8.6
2023-05-16T03:20:00.677Z,8.6
2023-05-16T03:25:00.726Z,8.6
2023-05-16T03:30:00.667Z,8.6
2023-05-16T03:35:00.573Z,8.6
2023-05-16T03:40:00.634Z,8.6
2023-05-16T03:45:00.747Z,8.6
2023-05-16T03:50:00.656Z,8.6
2023-05-16T03:55:00.616Z,8.6
2023-05-16T04:00:00.634Z,8.6
2023-05-16T04:05:00.703Z,8.6
2023-05-16T04:15:00.746Z,8.6
2023-05-16T04:20:00.723Z,8.8
2023-05-16T04:25:00.603Z,8.7
2023-05-16T04:30:00.577Z,8.7
2023-05-16T04:35:00.586Z,8.7
2023-05-16T04:40:00.580Z,8.7
2023-05-16T04:45:00.593Z,8.8
2023-05-16T04:50:00.618Z,8.8
2023-05-16T04:55:00.602Z,8.8
2023-05-16T05:00:00.602Z,8.8
2023-05-16T05:05:00.563Z,8.8
2023-05-16T05:10:00.691Z,8.9
2023-05-16T05:15:00.748Z,8.9
2023-05-16T05:20:02.790Z,8.8
2023-05-16T05:25:00.669Z,8.9
2023-05-16T05:30:00.969Z,8.9
2023-05-16T05:35:00.815Z,9
2023-05-16T05:40:00.630Z,8.9
2023-05-16T05:50:00.679Z,8.9
2023-05-16T05:55:00.687Z,8.9
2023-05-16T06:00:00.681Z,9
2023-05-16T06:05:00.761Z,8.9
2023-05-16T06:10:01.578Z,9
2023-05-16T06:15:00.662Z,8.9
2023-05-16T06:20:00.626Z,8.9
2023-05-16T06:25:00.654Z,9
2023-05-16T06:30:00.635Z,8.9
2023-05-16T06:35:00.701Z,8.9
2023-05-16T06:40:00.627Z,8.9
2023-05-16T06:45:00.684Z,8.8
2023-05-16T06:50:00.577Z,8.8
2023-05-16T06:55:00.742Z,8.8
2023-05-16T07:00:00.778Z,8.9
2023-05-16T07:05:00.621Z,8.9
2023-05-16T07:10:00.761Z,9
2023-05-16T07:15:00.631Z,9
2023-05-16T07:20:02.235Z,9
2023-05-16T07:30:00.618Z,9.1
2023-05-16T07:35:00.702Z,9
2023-05-16T07:40:00.697Z,9
2023-05-16T07:45:00.699Z,9.1
2023-05-16T07:50:00.640Z,9.1
2023-05-16T07:55:00.606Z,9.2
2023-05-16T08:00:00.609Z,9.3
2023-05-16T08:15:00.611Z,9.1
2023-05-16T08:20:00.653Z,9.1
2023-05-16T08:25:00.501Z,9.2
2023-05-16T08:40:00.727Z,9.1
2023-05-16T08:45:00.590Z,9.1
2023-05-16T08:50:00.586Z,9
2023-05-16T08:55:09.861Z,9.1
2023-05-16T09:00:00.631Z,9
2023-05-16T09:05:00.725Z,9.1
2023-05-16T09:15:00.667Z,9.8
2023-05-16T09:20:00.662Z,9.6
2023-05-16T09:25:00.710Z,9.3
2023-05-16T09:30:00.661Z,9.1
2023-05-16T09:35:00.679Z,9.1
2023-05-16T09:40:00.698Z,9.1
2023-05-16T09:45:01.703Z,8.9
2023-05-16T09:50:00.585Z,9
2023-05-16T09:55:00.643Z,8.7
2023-05-16T10:00:00.687Z,8.8
2023-05-16T10:05:00.633Z,8.8
2023-05-16T10:10:00.671Z,8.7
2023-05-16T10:15:00.719Z,8.7
2023-05-16T10:20:00.580Z,8.7
2023-05-16T10:25:00.618Z,8.7
2023-05-16T10:30:00.620Z,8.7
2023-05-16T10:35:00.597Z,8.7
2023-05-16T10:40:00.629Z,8.7
2023-05-16T10:45:05.707Z,8.7
2023-05-16T10:50:00.736Z,8.6
2023-05-16T10:55:00.675Z,8.8
2023-05-16T11:00:00.688Z,8.8
2023-05-16T11:05:00.693Z,8.8
2023-05-16T11:10:00.884Z,8.8
2023-05-16T11:15:00.620Z,8.8
2023-05-16T11:20:00.589Z,8.8
2023-05-16T11:25:00.663Z,8.8
2023-05-16T11:30:03.083Z,8.6
2023-05-16T11:35:00.657Z,8.7
2023-05-16T11:40:00.711Z,8.9
2023-05-16T11:45:00.841Z,8.9
2023-05-16T11:50:00.552Z,8.8
2023-05-16T11:55:00.601Z,8.9
2023-05-16T12:00:00.685Z,8.9
2023-05-16T12:05:00.664Z,8.9
2023-05-16T12:10:00.660Z,9
2023-05-16T12:15:00.709Z,9
2023-05-16T12:20:00.674Z,9
2023-05-16T12:25:00.670Z,9.2
2023-05-16T12:30:00.653Z,9.3
2023-05-16T12:35:00.700Z,9.3
2023-05-16T12:40:00.826Z,9.2
2023-05-16T12:45:00.761Z,9.1
2023-05-16T12:50:00.694Z,8.9
2023-05-16T12:55:00.737Z,8.9
2023-05-16T13:00:00.725Z,8.9
2023-05-16T13:05:00.670Z,8.8
2023-05-16T13:10:00.705Z,8.8
2023-05-16T13:15:00.704Z,8.9
2023-05-16T13:20:00.690Z,8.9
2023-05-16T13:25:00.640Z,9
2023-05-16T13:30:00.716Z,9
2023-05-16T13:35:00.593Z,9
2023-05-16T13:40:00.649Z,9.1
2023-05-16T13:45:00.644Z,9
2023-05-16T13:50:00.601Z,9
2023-05-16T13:55:00.594Z,9.1
2023-05-16T14:05:00.621Z,9
2023-05-16T14:10:00.680Z,9.1
2023-05-16T14:15:00.685Z,8.9
2023-05-16T14:20:00.658Z,8.9
2023-05-16T14:25:00.571Z,8.7
2023-05-16T14:30:00.695Z,8.6
2023-05-16T14:35:00.567Z,8.6
2023-05-16T14:40:00.690Z,8.6
2023-05-16T14:45:00.677Z,8.6
2023-05-16T14:55:00.656Z,8.7
2023-05-16T15:00:00.626Z,8.7
2023-05-16T15:05:00.649Z,8.6
2023-05-16T15:10:00.678Z,8.6
2023-05-16T15:15:00.732Z,8.5
2023-05-16T15:20:00.740Z,8.6
2023-05-16T15:25:00.733Z,8.6
2023-05-16T15:30:00.600Z,8.7
2023-05-16T15:35:00.590Z,8.6
2023-05-16T15:40:00.724Z,8.6
2023-05-16T15:45:00.560Z,8.7
2023-05-16T15:50:00.608Z,8.6
2023-05-16T15:55:00.649Z,8.6
2023-05-16T16:00:00.820Z,8.5
2023-05-16T16:05:00.802Z,8.5
2023-05-16T16:10:00.800Z,8.3
2023-05-16T16:15:00.726Z,8.3
2023-05-16T16:20:00.768Z,8.3
2023-05-16T16:25:00.673Z,8.2
2023-05-16T16:30:00.662Z,8.3
2023-05-16T16:35:00.669Z,8.2
2023-05-16T16:40:00.653Z,8.1
2023-05-16T16:45:00.642Z,8.2
2023-05-16T16:50:00.589Z,8.2
2023-05-16T16:55:00.593Z,8.2
2023-05-16T17:00:00.595Z,8.1
2023-05-16T17:05:00.723Z,8.1
2023-05-16T17:10:00.584Z,8.1
2023-05-16T17:15:00.546Z,8
2023-05-16T17:20:00.610Z,7.9
2023-05-16T17:25:00.711Z,7.9
2023-05-16T17:30:00.649Z,7.9
2023-05-16T17:35:00.590Z,7.8
2023-05-16T17:40:00.577Z,7.8
2023-05-16T17:45:00.630Z,7.8
2023-05-16T17:50:00.679Z,7.9
2023-05-16T17:55:00.669Z,7.8
2023-05-16T18:00:00.587Z,7.8
2023-05-16T18:05:00.648Z,7.8
2023-05-16T18:10:00.591Z,7.8
2023-05-16T18:15:00.622Z,7.8
2023-05-16T18:20:00.819Z,7.8
2023-05-16T18:25:00.619Z,7.7
2023-05-16T18:30:00.748Z,7.7
2023-05-16T18:35:00.750Z,7.7
2023-05-16T18:40:01.496Z,7.7
2023-05-16T18:45:00.794Z,7.7
2023-05-16T18:50:00.612Z,7.7
2023-05-16T18:55:00.884Z,7.7
2023-05-16T19:00:00.669Z,7.6
2023-05-16T19:05:01.647Z,7.6
2023-05-16T19:10:02.849Z,7.6
2023-05-16T19:15:00.764Z,7.6
2023-05-16T19:20:00.808Z,7.6
2023-05-16T19:25:00.736Z,7.6
2023-05-16T19:30:00.632Z,7.5
2023-05-16T19:35:00.707Z,7.5
2023-05-16T19:40:00.832Z,7.5
2023-05-16T19:45:00.611Z,7.5
2023-05-16T19:50:00.568Z,7.5
2023-05-16T19:55:00.639Z,7.4
2023-05-16T20:00:00.530Z,7.5
2023-05-16T20:10:00.681Z,7.5
2023-05-16T20:15:00.596Z,7.5
2023-05-16T20:20:00.685Z,7.5
2023-05-16T20:25:00.597Z,7.5
2023-05-16T20:30:00.612Z,7.6
2023-05-16T20:35:00.662Z,7.6
2023-05-16T20:40:00.648Z,7.5
2023-05-16T20:45:00.661Z,7.5
2023-05-16T20:50:00.653Z,7.5
2023-05-16T20:55:00.813Z,7.5
2023-05-16T21:00:00.643Z,7.5
2023-05-16T21:05:10.120Z,7.6
2023-05-16T21:10:00.814Z,7.6
2023-05-16T21:15:00.626Z,7.6
2023-05-16T21:20:00.693Z,7.5
2023-05-16T21:25:00.599Z,7.6
2023-05-16T21:30:00.858Z,7.6
2023-05-16T21:35:00.687Z,7.6
2023-05-16T21:40:00.705Z,7.6
2023-05-16T21:45:00.694Z,7.6
2023-05-16T21:50:00.553Z,7.6
2023-05-16T21:55:00.603Z,7.6
2023-05-16T22:00:00.618Z,7.7
2023-05-16T22:05:00.738Z,7.6
2023-05-16T22:10:00.759Z,7.6
2023-05-16T22:15:00.647Z,7.6
2023-05-16T22:20:00.729Z,7.6
2023-05-16T22:25:00.732Z,7.7
2023-05-16T22:30:00.615Z,7.6
2023-05-16T22:35:00.632Z,7.6
2023-05-16T22:40:00.575Z,7.6
2023-05-16T22:50:00.693Z,7.6
2023-05-16T22:55:00.552Z,7.6
2023-05-16T23:00:00.693Z,7.6
2023-05-16T23:05:00.780Z,7.6
2023-05-16T23:10:00.650Z,7.6
2023-05-16T23:15:00.569Z,7.5
2023-05-16T23:20:00.932Z,7.5
2023-05-16T23:25:00.684Z,7.5
2023-05-16T23:30:00.541Z,7.5
2023-05-16T23:35:00.627Z,7.5
2023-05-16T23:40:00.845Z,7.5
2023-05-16T23:45:00.758Z,7.5
2023-05-16T23:50:00.676Z,7.5
2023-05-16T23:55:00.662Z,7.5
